createdAt,value
2023-04-01T00:00:07.289Z,19.88
2023-04-01T00:03:17.793Z,20.83
2023-04-01T00:06:23.501Z,18.63
2023-04-01T00:09:29.897Z,20.98
2023-04-01T00:12:35.584Z,18.90
2023-04-01T00:15:43.512Z,17.30
2023-04-01T00:18:49.170Z,17.77
2023-04-01T00:21:54.763Z,18.50
2023-04-01T00:25:00.149Z,19.67
2023-04-01T00:28:05.785Z,19.08
2023-04-01T00:31:14.475Z,19.02
2023-04-01T00:34:19.812Z,19.92
2023-04-01T00:37:26.136Z,16.63
2023-04-01T00:40:32.603Z,19.55
2023-04-01T00:43:38.627Z,18.73
2023-04-01T00:46:46.793Z,20.13
2023-04-01T00:49:53.578Z,19.65
2023-04-01T00:52:59.297Z,22.88
2023-04-01T00:56:07.198Z,21.00
2023-04-01T00:59:14.081Z,23.02
2023-04-01T01:02:22.076Z,19.05
2023-04-01T01:05:34.369Z,19.60
2023-04-01T01:08:51.503Z,19.83
2023-04-01T01:11:59.617Z,20.48
2023-04-01T01:15:07.211Z,18.92
2023-04-01T01:18:21.473Z,22.30
2023-04-01T01:21:44.954Z,22.80
2023-04-01T01:25:07.708Z,20.38
2023-04-01T01:28:22.315Z,19.25
2023-04-01T01:31:34.167Z,24.80
2023-04-01T01:34:43.411Z,22.65
2023-04-01T01:37:53.040Z,20.65
2023-04-01T01:40:59.922Z,22.77
2023-04-01T01:44:07.076Z,22.35
2023-04-01T01:47:12.886Z,20.55
2023-04-01T01:50:19.053Z,20.85
2023-04-01T01:53:27.138Z,19.60
2023-04-01T01:56:33.458Z,25.60
2023-04-01T01:59:40.312Z,20.30
2023-04-01T02:02:46.679Z,22.33
2023-04-01T02:05:52.952Z,20.33
2023-04-01T02:09:02.290Z,22.08
2023-04-01T02:12:10.098Z,21.35
2023-04-01T02:15:19.314Z,23.00
2023-04-01T02:18:25.870Z,21.67
2023-04-01T02:21:34.384Z,22.05
2023-04-01T02:24:44.239Z,21.13
2023-04-01T02:27:50.688Z,20.27
2023-04-01T02:30:56.477Z,20.40
2023-04-01T02:34:02.130Z,24.17
2023-04-01T02:37:08.587Z,20.60
2023-04-01T02:40:17.548Z,20.90
2023-04-01T02:43:23.581Z,20.20
2023-04-01T02:46:29.024Z,20.60
2023-04-01T02:49:34.336Z,20.23
2023-04-01T02:52:39.616Z,21.63
2023-04-01T02:55:48.233Z,21.80
2023-04-01T02:58:53.619Z,18.65
2023-04-01T03:01:58.948Z,27.27
2023-04-01T03:05:04.393Z,19.98
2023-04-01T03:08:09.872Z,21.42
2023-04-01T03:11:18.054Z,22.25
2023-04-01T03:14:23.770Z,21.45
2023-04-01T03:17:29.095Z,21.25
2023-04-01T03:20:34.535Z,20.67
2023-04-01T03:23:39.620Z,21.15
2023-04-01T03:26:47.933Z,20.02
2023-04-01T03:32:58.927Z,23.15
2023-04-01T03:36:07.882Z,19.10
2023-04-01T03:39:13.601Z,21.75
2023-04-01T03:42:23.116Z,20.02
2023-04-01T03:45:28.678Z,18.23
2023-04-01T03:48:34.272Z,21.27
2023-04-01T03:51:40.105Z,27.13
2023-04-01T03:54:45.512Z,19.90
2023-04-01T03:57:53.524Z,23.63
2023-04-01T04:00:58.693Z,19.92
2023-04-01T04:04:04.506Z,20.45
2023-04-01T04:07:09.751Z,19.75
2023-04-01T04:10:36.527Z,20.50
2023-04-01T04:13:44.348Z,19.17
2023-04-01T04:16:50.037Z,19.25
2023-04-01T04:19:55.364Z,21.73
2023-04-01T04:23:01.008Z,22.42
2023-04-01T04:26:07.595Z,21.20
2023-04-01T04:29:15.661Z,21.33
2023-04-01T04:32:21.270Z,21.85
2023-04-01T04:35:26.796Z,20.73
2023-04-01T04:38:32.739Z,22.92
2023-04-01T04:41:38.274Z,19.05
2023-04-01T04:44:46.147Z,21.85
2023-04-01T04:47:52.206Z,20.13
2023-04-01T04:50:57.610Z,18.98
2023-04-01T04:54:03.420Z,21.08
2023-04-01T04:57:22.413Z,22.50
2023-04-01T05:00:35.702Z,19.92
2023-04-01T05:03:45.761Z,18.30
2023-04-01T05:06:51.456Z,20.95
2023-04-01T05:09:57.224Z,20.20
2023-04-01T05:16:11.844Z,20.23
2023-04-01T05:22:22.077Z,19.85
2023-04-01T05:25:27.940Z,23.38
2023-04-01T05:28:33.161Z,18.55
2023-04-01T05:31:41.438Z,18.45
2023-04-01T05:34:46.933Z,20.65
2023-04-01T05:37:52.289Z,21.27
2023-04-01T05:41:02.810Z,21.23
2023-04-01T05:44:09.658Z,21.02
2023-04-01T05:47:37.724Z,23.90
2023-04-01T05:50:44.653Z,22.55
2023-04-01T05:53:50.726Z,19.73
2023-04-01T05:56:57.412Z,20.50
2023-04-01T06:00:02.613Z,15.93
2023-04-01T06:03:20.580Z,16.17
2023-04-01T06:06:28.164Z,17.95
2023-04-01T06:09:39.787Z,20.85
2023-04-01T06:12:52.667Z,18.52
2023-04-01T06:16:03.845Z,16.65
2023-04-01T06:19:25.910Z,18.63
2023-04-01T06:22:35.418Z,18.00
2023-04-01T06:25:47.539Z,18.85
2023-04-01T06:29:07.514Z,17.58
2023-04-01T06:32:26.918Z,20.25
2023-04-01T06:35:40.240Z,20.35
2023-04-01T06:38:54.777Z,18.48
2023-04-01T06:42:06.669Z,14.50
2023-04-01T06:45:21.941Z,18.90
2023-04-01T06:48:51.258Z,19.77
2023-04-01T06:52:22.374Z,23.35
2023-04-01T06:56:01.764Z,25.02
2023-04-01T06:59:24.786Z,27.40
2023-04-01T07:02:32.758Z,25.08
2023-04-01T07:05:39.228Z,30.17
2023-04-01T07:08:48.450Z,27.95
2023-04-01T07:11:54.823Z,26.38
2023-04-01T07:15:21.295Z,30.45
2023-04-01T07:18:30.325Z,23.30
2023-04-01T07:21:38.935Z,26.70
2023-04-01T07:24:56.145Z,29.38
2023-04-01T07:28:04.976Z,26.63
2023-04-01T07:31:15.398Z,30.50
2023-04-01T07:34:23.346Z,33.25
2023-04-01T07:37:33.362Z,28.65
2023-04-01T07:40:44.903Z,30.73
2023-04-01T07:43:58.259Z,27.65
2023-04-01T07:47:13.262Z,24.23
2023-04-01T07:50:24.508Z,27.60
2023-04-01T07:53:34.001Z,27.83
2023-04-01T07:56:44.957Z,24.60
2023-04-01T08:00:00.006Z,25.30
2023-04-01T08:03:25.882Z,27.77
2023-04-01T08:06:34.820Z,25.75
2023-04-01T08:09:45.180Z,29.52
2023-04-01T08:13:20.917Z,30.55
2023-04-01T08:17:06.767Z,24.85
2023-04-01T08:20:22.344Z,27.70
2023-04-01T08:23:30.125Z,24.58
2023-04-01T08:26:38.570Z,25.50
2023-04-01T08:29:49.198Z,25.67
2023-04-01T08:32:57.617Z,31.10
2023-04-01T08:36:07.944Z,28.83
2023-04-01T08:39:16.722Z,24.75
2023-04-01T08:42:43.189Z,27.77
2023-04-01T08:46:01.348Z,27.10
2023-04-01T08:49:16.035Z,23.90
2023-04-01T08:52:30.098Z,26.98
2023-04-01T08:55:41.029Z,21.73
2023-04-01T08:59:07.044Z,22.77
2023-04-01T09:02:32.204Z,20.35
2023-04-01T09:05:52.188Z,25.52
2023-04-01T09:09:07.368Z,28.02
2023-04-01T09:12:34.098Z,18.73
2023-04-01T09:15:46.366Z,19.58
2023-04-01T09:19:10.041Z,16.45
2023-04-01T09:22:30.760Z,14.82
2023-04-01T09:25:51.376Z,18.27
2023-04-01T09:29:04.078Z,17.45
2023-04-01T09:32:17.143Z,19.55
2023-04-01T09:35:43.787Z,17.42
2023-04-01T09:38:58.823Z,14.32
2023-04-01T09:42:12.090Z,18.45
2023-04-01T09:45:38.887Z,16.42
2023-04-01T09:48:59.262Z,16.25
2023-04-01T09:52:22.232Z,15.25
2023-04-01T09:55:55.821Z,17.88
2023-04-01T09:59:11.147Z,17.88
2023-04-01T10:03:02.133Z,19.45
2023-04-01T10:06:30.974Z,16.67
2023-04-01T10:09:51.285Z,23.27
2023-04-01T10:13:14.377Z,21.20
2023-04-01T10:16:30.747Z,21.95
2023-04-01T10:19:49.319Z,24.73
2023-04-01T10:23:11.889Z,20.08
2023-04-01T10:26:28.511Z,18.10
2023-04-01T10:30:08.000Z,14.75
2023-04-01T10:33:32.037Z,15.73
2023-04-01T10:36:55.115Z,13.70
2023-04-01T10:40:21.726Z,13.38
2023-04-01T10:44:06.610Z,12.77
2023-04-01T10:47:26.199Z,13.43
2023-04-01T10:50:46.851Z,12.77
2023-04-01T10:54:17.071Z,12.68
2023-04-01T10:58:00.158Z,16.02
2023-04-01T11:02:10.117Z,13.07
2023-04-01T11:06:00.427Z,10.10
2023-04-01T11:09:22.364Z,11.32
2023-04-01T11:12:42.278Z,14.30
2023-04-01T11:16:03.729Z,9.82
2023-04-01T11:19:25.190Z,12.70
2023-04-01T11:22:46.142Z,10.55
2023-04-01T11:26:01.133Z,10.25
2023-04-01T11:29:46.943Z,11.38
2023-04-01T11:33:05.178Z,9.57
2023-04-01T11:36:16.492Z,10.38
2023-04-01T11:39:27.033Z,11.65
2023-04-01T11:42:48.255Z,11.70
2023-04-01T11:46:15.131Z,9.23
2023-04-01T11:52:49.188Z,10.13
2023-04-01T11:56:01.416Z,10.48
2023-04-01T11:59:16.454Z,8.63
2023-04-01T12:02:25.228Z,9.80
2023-04-01T12:05:38.098Z,10.10
2023-04-01T12:08:48.904Z,7.63
2023-04-01T12:11:57.103Z,10.50
2023-04-01T12:15:12.748Z,12.18
2023-04-01T12:18:21.891Z,8.70
2023-04-01T12:21:30.665Z,10.18
2023-04-01T12:27:45.667Z,17.90
2023-04-01T12:30:57.519Z,10.32
2023-04-01T12:34:26.254Z,11.38
2023-04-01T12:37:35.898Z,14.93
2023-04-01T12:40:53.362Z,13.02
2023-04-01T12:44:16.346Z,11.23
2023-04-01T12:47:45.214Z,10.57
2023-04-01T12:51:05.917Z,20.02
2023-04-01T12:54:29.336Z,10.50
2023-04-01T12:57:44.407Z,12.27
2023-04-01T13:00:57.351Z,7.70
2023-04-01T13:04:17.813Z,12.38
2023-04-01T13:07:32.170Z,13.20
2023-04-01T13:10:49.487Z,11.38
2023-04-01T13:14:02.605Z,11.53
2023-04-01T13:17:12.340Z,14.23
2023-04-01T13:20:20.624Z,9.27
2023-04-01T13:23:33.142Z,9.95
2023-04-01T13:26:45.121Z,16.20
2023-04-01T13:29:54.261Z,15.07
2023-04-01T13:33:03.520Z,13.68
2023-04-01T13:36:19.794Z,14.77
2023-04-01T13:39:31.332Z,12.38
2023-04-01T13:42:43.589Z,10.35
2023-04-01T13:45:58.172Z,10.60
2023-04-01T13:49:11.367Z,20.30
2023-04-01T13:52:34.325Z,18.13
2023-04-01T13:55:45.873Z,13.15
2023-04-01T13:59:03.387Z,15.70
2023-04-01T14:02:18.717Z,13.38
2023-04-01T14:05:43.671Z,13.63
2023-04-01T14:08:59.444Z,14.93
2023-04-01T14:12:08.803Z,18.73
2023-04-01T14:15:29.222Z,11.80
2023-04-01T14:18:38.724Z,11.68
2023-04-01T14:21:47.473Z,15.70
2023-04-01T14:25:09.139Z,11.90
2023-04-01T14:28:20.634Z,16.45
2023-04-01T14:31:31.991Z,12.93
2023-04-01T14:34:44.538Z,13.50
2023-04-01T14:38:10.320Z,16.00
2023-04-01T14:41:20.623Z,17.92
2023-04-01T14:44:38.406Z,19.42
2023-04-01T14:47:50.915Z,20.30
2023-04-01T14:50:58.017Z,15.50
2023-04-01T14:54:06.524Z,15.23
2023-04-01T14:57:15.673Z,14.73
2023-04-01T15:00:21.972Z,18.48
2023-04-01T15:03:33.316Z,15.88
2023-04-01T15:06:42.806Z,14.65
2023-04-01T15:09:55.994Z,19.65
2023-04-01T15:13:08.592Z,16.95
2023-04-01T15:16:19.926Z,25.75
2023-04-01T15:19:35.166Z,19.13
2023-04-01T15:22:54.911Z,18.00
2023-04-01T15:26:15.005Z,20.08
2023-04-01T15:29:36.057Z,15.07
2023-04-01T15:32:48.431Z,20.58
2023-04-01T15:36:00.767Z,19.10
2023-04-01T15:39:13.705Z,18.13
2023-04-01T15:42:40.352Z,16.77
2023-04-01T15:45:49.569Z,17.08
2023-04-01T15:49:01.922Z,25.65
2023-04-01T15:52:15.642Z,17.63
2023-04-01T15:55:25.095Z,17.85
2023-04-01T15:58:36.509Z,18.48
2023-04-01T16:01:48.211Z,16.85
2023-04-01T16:04:58.642Z,16.85
2023-04-01T16:08:13.679Z,16.60
2023-04-01T16:11:25.976Z,18.65
2023-04-01T16:14:36.141Z,22.35
2023-04-01T16:17:50.554Z,21.83
2023-04-01T16:20:58.665Z,16.35
2023-04-01T16:24:09.973Z,23.33
2023-04-01T16:27:18.197Z,19.17
2023-04-01T16:30:38.600Z,17.95
2023-04-01T16:33:45.886Z,20.90
2023-04-01T16:36:52.912Z,19.35
2023-04-01T16:40:08.138Z,19.05
2023-04-01T16:43:17.692Z,18.10
2023-04-01T16:46:31.242Z,18.27
2023-04-01T16:49:41.003Z,20.38
2023-04-01T16:53:01.212Z,20.92
2023-04-01T16:56:16.103Z,17.13
2023-04-01T16:59:25.738Z,19.23
2023-04-01T17:02:32.563Z,22.65
2023-04-01T17:05:43.845Z,16.33
2023-04-01T17:08:57.065Z,16.75
2023-04-01T17:12:09.836Z,15.80
2023-04-01T17:15:21.406Z,15.13
2023-04-01T17:18:33.509Z,15.43
2023-04-01T17:21:50.894Z,14.07
2023-04-01T17:25:05.179Z,17.38
2023-04-01T17:28:19.094Z,15.88
2023-04-01T17:31:35.825Z,18.00
2023-04-01T17:34:50.106Z,17.15
2023-04-01T17:38:03.405Z,19.08
2023-04-01T17:41:13.179Z,18.45
2023-04-01T17:44:28.619Z,18.88
2023-04-01T17:47:38.499Z,17.50
2023-04-01T17:50:53.796Z,16.40
2023-04-01T17:54:02.194Z,18.90
2023-04-01T18:00:25.096Z,17.30
2023-04-01T18:03:40.798Z,15.45
2023-04-01T18:06:56.303Z,18.85
2023-04-01T18:10:07.952Z,23.65
2023-04-01T18:13:26.900Z,19.08
2023-04-01T18:16:45.745Z,20.80
2023-04-01T18:19:56.137Z,21.95
2023-04-01T18:23:03.959Z,19.33
2023-04-01T18:26:14.341Z,18.25
2023-04-01T18:29:29.000Z,22.30
2023-04-01T18:32:42.406Z,19.20
2023-04-01T18:35:51.727Z,22.63
2023-04-01T18:38:58.574Z,21.45
2023-04-01T18:42:08.328Z,23.52
2023-04-01T18:45:21.772Z,20.77
2023-04-01T18:48:38.597Z,20.83
2023-04-01T18:51:49.943Z,23.33
2023-04-01T18:55:00.815Z,22.05
2023-04-01T18:58:18.414Z,20.58
2023-04-01T19:01:39.265Z,20.08
2023-04-01T19:04:51.831Z,18.02
2023-04-01T19:07:57.559Z,25.85
2023-04-01T19:11:10.214Z,20.33
2023-04-01T19:14:20.980Z,20.77
2023-04-01T19:17:32.033Z,19.48
2023-04-01T19:20:42.276Z,23.95
2023-04-01T19:24:05.409Z,18.70
2023-04-01T19:27:14.531Z,18.98
2023-04-01T19:30:29.079Z,18.52
2023-04-01T19:33:44.767Z,20.70
2023-04-01T19:36:53.692Z,23.23
2023-04-01T19:40:01.650Z,22.17
2023-04-01T19:43:13.518Z,21.13
2023-04-01T19:46:22.620Z,22.08
2023-04-01T19:49:34.814Z,21.58
2023-04-01T19:52:44.169Z,21.13
2023-04-01T19:55:52.338Z,24.80
2023-04-01T19:59:00.139Z,19.15
2023-04-01T20:02:26.100Z,24.83
2023-04-01T20:05:43.334Z,21.13
2023-04-01T20:08:54.189Z,21.58
2023-04-01T20:12:02.819Z,21.70
2023-04-01T20:15:22.845Z,22.95
2023-04-01T20:18:30.699Z,20.13
2023-04-01T20:21:38.883Z,21.90
2023-04-01T20:24:50.081Z,26.17
2023-04-01T20:27:57.936Z,24.20
2023-04-01T20:31:08.779Z,24.48
2023-04-01T20:34:27.194Z,22.48
2023-04-01T20:37:39.921Z,24.05
2023-04-01T20:40:49.743Z,25.13
2023-04-01T20:44:07.924Z,27.88
2023-04-01T20:47:18.341Z,23.83
2023-04-01T20:50:28.267Z,24.35
2023-04-01T20:53:40.206Z,25.27
2023-04-01T20:56:56.574Z,26.65
2023-04-01T21:00:17.443Z,23.50
2023-04-01T21:03:34.110Z,26.75
2023-04-01T21:06:54.978Z,22.70
2023-04-01T21:10:11.049Z,28.50
2023-04-01T21:13:28.072Z,27.52
2023-04-01T21:16:45.504Z,25.25
2023-04-01T21:19:59.289Z,26.60
2023-04-01T21:23:10.519Z,28.42
2023-04-01T21:26:33.378Z,25.38
2023-04-01T21:29:50.678Z,25.25
2023-04-01T21:33:07.988Z,26.75
2023-04-01T21:36:19.659Z,26.93
2023-04-01T21:39:32.937Z,24.33
2023-04-01T21:42:45.605Z,24.63
2023-04-01T21:46:04.510Z,21.63
2023-04-01T21:49:20.449Z,21.08
2023-04-01T21:52:40.434Z,22.88
2023-04-01T21:56:06.514Z,23.20
2023-04-01T21:59:21.008Z,24.27
2023-04-01T22:02:39.753Z,22.48
2023-04-01T22:05:47.414Z,25.42
2023-04-01T22:08:56.962Z,20.13
2023-04-01T22:12:04.984Z,26.08
2023-04-01T22:15:18.567Z,23.00
2023-04-01T22:18:30.361Z,22.20
2023-04-01T22:21:39.851Z,26.95
2023-04-01T22:24:51.373Z,25.92
2023-04-01T22:27:59.918Z,23.75
2023-04-01T22:31:06.017Z,25.35
2023-04-01T22:34:18.941Z,28.95
2023-04-01T22:37:28.824Z,26.60
2023-04-01T22:40:38.152Z,28.17
2023-04-01T22:43:44.493Z,24.63
2023-04-01T22:46:53.489Z,23.02
2023-04-01T22:50:04.935Z,28.83
2023-04-01T22:53:12.545Z,28.48
2023-04-01T22:56:20.153Z,26.98
2023-04-01T22:59:28.563Z,28.20
2023-04-01T23:02:35.885Z,29.35
2023-04-01T23:05:45.139Z,29.80
2023-04-01T23:08:59.724Z,28.45
2023-04-01T23:12:07.255Z,28.45
2023-04-01T23:15:16.437Z,31.58
2023-04-01T23:18:26.182Z,31.58
2023-04-01T23:21:39.504Z,35.58
2023-04-01T23:24:46.462Z,25.00
2023-04-01T23:27:54.904Z,28.30
2023-04-01T23:31:00.264Z,29.95
2023-04-01T23:34:07.276Z,27.80
2023-04-01T23:37:18.279Z,32.35
2023-04-01T23:40:26.301Z,31.42
2023-04-01T23:46:38.623Z,33.85
2023-04-01T23:49:45.750Z,33.10
2023-04-01T23:52:57.944Z,31.55
2023-04-01T23:56:03.505Z,37.00
2023-04-01T23:59:09.102Z,39.65
